Time;durP1;ratioP1;P1;durP2;ratioP2;P2;SDS_P1;SDS_P2;PMS_P1;PMS_P2;Temp;Humidity;BMP_temperature;BMP_pressure;BME280_temperature;BME280_humidity;BME280_pressure;Samples;Min_cycle;Max_cycle;Signal;HPM_P1;HPM_P2
2022/03/06 00:01:30;;;;;;;18.40;14.13;;;;;;;;;;5106441;27;20040;-84
2022/03/06 00:03:56;;;;;;;17.92;14.30;;;;;;;;;;5089544;28;20539;-83
2022/03/06 00:06:22;;;;;;;17.88;13.60;;;;;;;;;;5087936;28;20133;-83
2022/03/06 00:08:48;;;;;;;20.58;13.93;;;;;;;;;;5091559;28;20051;-91
2022/03/06 00:11:14;;;;;;;17.45;13.65;;;;;;;;;;5107173;27;20054;-89
2022/03/06 00:13:40;;;;;;;20.65;13.93;;;;;;;;;;5091120;28;20109;-88
2022/03/06 00:16:06;;;;;;;19.75;14.10;;;;;;;;;;5107317;28;20056;-90
2022/03/06 00:18:35;;;;;;;17.63;13.27;;;;;;;;;;5091846;28;20140;-80
2022/03/06 00:21:01;;;;;;;16.63;12.75;;;;;;;;;;5088383;28;20436;-87
2022/03/06 00:23:28;;;;;;;17.52;13.20;;;;;;;;;;5105670;28;20043;-84
2022/03/06 00:25:54;;;;;;;17.70;13.43;;;;;;;;;;5089094;28;20051;-84
2022/03/06 00:28:20;;;;;;;18.58;13.77;;;;;;;;;;5107105;28;20080;-81
2022/03/06 00:30:47;;;;;;;17.08;12.50;;;;;;;;;;5090492;28;20051;-83
2022/03/06 00:33:13;;;;;;;18.27;12.85;;;;;;;;;;5088456;28;20035;-81
2022/03/06 00:35:40;;;;;;;17.98;12.98;;;;;;;;;;5088060;28;20386;-80
2022/03/06 00:38:06;;;;;;;17.52;12.10;;;;;;;;;;5088692;28;20088;-80
2022/03/06 00:40:32;;;;;;;16.08;11.95;;;;;;;;;;5076464;28;20424;-77
2022/03/06 00:42:58;;;;;;;17.23;12.73;;;;;;;;;;5078697;28;20067;-75
2022/03/06 00:45:24;;;;;;;17.02;12.02;;;;;;;;;;5086128;28;20563;-74
2022/03/06 00:47:51;;;;;;;15.32;10.90;;;;;;;;;;5118438;27;20449;-87
2022/03/06 00:50:17;;;;;;;15.80;11.20;;;;;;;;;;5081190;28;20423;-85
2022/03/06 00:52:43;;;;;;;17.27;11.90;;;;;;;;;;5108276;28;20639;-82
2022/03/06 00:55:09;;;;;;;20.00;11.25;;;;;;;;;;5106572;27;20042;-85
2022/03/06 00:57:35;;;;;;;17.58;11.82;;;;;;;;;;5106260;28;20028;-84
2022/03/06 01:00:03;;;;;;;15.90;11.48;;;;;;;;;;5070651;28;20108;-79
2022/03/06 01:02:29;;;;;;;15.77;10.63;;;;;;;;;;5105897;28;20388;-85
2022/03/06 01:04:55;;;;;;;15.35;10.50;;;;;;;;;;5090330;28;20424;-85
2022/03/06 01:07:21;;;;;;;16.60;10.82;;;;;;;;;;5088792;28;20065;-86
2022/03/06 01:09:47;;;;;;;15.90;10.85;;;;;;;;;;5069139;28;20094;-84
2022/03/06 01:12:14;;;;;;;13.45;9.80;;;;;;;;;;5107600;28;20097;-84
2022/03/06 01:14:40;;;;;;;14.05;10.38;;;;;;;;;;5088987;28;20367;-84
2022/03/06 01:17:06;;;;;;;14.13;9.98;;;;;;;;;;5090357;28;20054;-78
2022/03/06 01:19:32;;;;;;;15.18;9.32;;;;;;;;;;5089636;27;20031;-84
2022/03/06 01:21:58;;;;;;;13.35;9.77;;;;;;;;;;5089931;28;20044;-85
2022/03/06 01:24:24;;;;;;;11.52;8.60;;;;;;;;;;5106673;27;20047;-83
2022/03/06 01:26:50;;;;;;;16.83;10.18;;;;;;;;;;5106373;28;20074;-83
2022/03/06 01:29:18;;;;;;;17.05;10.02;;;;;;;;;;5088773;28;20050;-83
2022/03/06 01:31:44;;;;;;;16.27;11.02;;;;;;;;;;5088895;28;20457;-84
2022/03/06 01:34:10;;;;;;;13.38;9.02;;;;;;;;;;5104507;28;20147;-82
2022/03/06 01:36:37;;;;;;;12.02;9.00;;;;;;;;;;5086754;28;20055;-85
2022/03/06 01:39:03;;;;;;;15.80;9.88;;;;;;;;;;5087348;28;20382;-84
2022/03/06 01:41:33;;;;;;;18.70;9.85;;;;;;;;;;5088356;28;20563;-86
2022/03/06 01:43:59;;;;;;;12.73;9.65;;;;;;;;;;5089900;28;20051;-85
2022/03/06 01:46:25;;;;;;;15.18;9.68;;;;;;;;;;5106080;27;20078;-83
2022/03/06 01:48:51;;;;;;;13.23;9.57;;;;;;;;;;5089481;28;20036;-83
2022/03/06 01:51:17;;;;;;;13.02;9.40;;;;;;;;;;5102358;28;20069;-85
2022/03/06 01:53:43;;;;;;;14.77;9.45;;;;;;;;;;5072765;28;20471;-83
2022/03/06 01:56:11;;;;;;;11.68;9.02;;;;;;;;;;5109116;28;20047;-81
2022/03/06 01:58:37;;;;;;;14.18;8.82;;;;;;;;;;5106043;28;20039;-85
2022/03/06 02:01:03;;;;;;;12.35;8.68;;;;;;;;;;5102883;28;20051;-82
2022/03/06 02:03:29;;;;;;;13.63;8.07;;;;;;;;;;5105731;28;20221;-85
2022/03/06 02:05:56;;;;;;;12.50;9.18;;;;;;;;;;5105312;28;20036;-85
2022/03/06 02:08:22;;;;;;;15.15;8.52;;;;;;;;;;5089482;28;20036;-85
2022/03/06 02:10:49;;;;;;;11.27;8.45;;;;;;;;;;5109759;27;20066;-84
2022/03/06 02:13:15;;;;;;;17.75;8.85;;;;;;;;;;5110383;28;20089;-85
2022/03/06 02:15:43;;;;;;;16.10;9.13;;;;;;;;;;5094806;27;20158;-84
2022/03/06 02:18:10;;;;;;;13.40;9.07;;;;;;;;;;5109387;28;20040;-84
2022/03/06 02:20:37;;;;;;;13.48;9.02;;;;;;;;;;5108488;28;20434;-83
2022/03/06 02:23:03;;;;;;;10.93;7.57;;;;;;;;;;5120747;27;20069;-81
2022/03/06 02:25:34;;;;;;;11.07;7.45;;;;;;;;;;5108311;28;20035;-85
2022/03/06 02:28:01;;;;;;;8.77;6.75;;;;;;;;;;5114207;27;20051;-85
2022/03/06 02:30:29;;;;;;;11.13;6.38;;;;;;;;;;5091785;28;20081;-83
2022/03/06 02:32:57;;;;;;;9.30;5.90;;;;;;;;;;5107518;27;20074;-84
2022/03/06 02:35:24;;;;;;;11.20;6.57;;;;;;;;;;5108504;28;20046;-83
2022/03/06 02:37:50;;;;;;;8.68;5.97;;;;;;;;;;5112967;27;20047;-83
2022/03/06 02:40:17;;;;;;;11.00;6.35;;;;;;;;;;5092651;28;20043;-84
2022/03/06 02:42:44;;;;;;;10.90;6.00;;;;;;;;;;5092211;28;20056;-84
2022/03/06 02:45:13;;;;;;;8.30;5.95;;;;;;;;;;5110252;28;20032;-83
2022/03/06 02:47:40;;;;;;;15.95;6.00;;;;;;;;;;5113967;27;20048;-86
2022/03/06 02:50:07;;;;;;;9.07;5.47;;;;;;;;;;5092188;28;20551;-84
2022/03/06 02:52:34;;;;;;;10.35;5.85;;;;;;;;;;5111662;27;20071;-83
2022/03/06 02:55:00;;;;;;;8.00;5.50;;;;;;;;;;5088480;28;20443;-78
2022/03/06 02:57:26;;;;;;;9.07;5.45;;;;;;;;;;5094466;28;20063;-85
2022/03/06 02:59:52;;;;;;;8.55;6.22;;;;;;;;;;5075586;28;20066;-85
2022/03/06 03:02:18;;;;;;;11.10;6.05;;;;;;;;;;5108998;28;20035;-78
2022/03/06 03:04:44;;;;;;;9.40;5.68;;;;;;;;;;5093756;28;20070;-82
2022/03/06 03:07:10;;;;;;;9.43;5.97;;;;;;;;;;5109283;27;20031;-84
2022/03/06 03:09:36;;;;;;;10.40;6.20;;;;;;;;;;5092680;28;20046;-85
2022/03/06 03:12:03;;;;;;;12.15;6.53;;;;;;;;;;5093296;28;20051;-83
2022/03/06 03:14:32;;;;;;;11.80;6.35;;;;;;;;;;5108596;27;20043;-80
2022/03/06 03:16:59;;;;;;;9.77;5.70;;;;;;;;;;5107997;28;20049;-79
2022/03/06 03:19:25;;;;;;;14.15;6.32;;;;;;;;;;5092598;28;20061;-82
2022/03/06 03:21:51;;;;;;;8.73;5.78;;;;;;;;;;5091166;28;20043;-80
2022/03/06 03:24:17;;;;;;;10.50;6.50;;;;;;;;;;5119740;27;20044;-85
2022/03/06 03:26:43;;;;;;;8.93;6.03;;;;;;;;;;5110037;27;20065;-84
2022/03/06 03:29:09;;;;;;;8.70;5.80;;;;;;;;;;5075268;28;20063;-84
2022/03/06 03:31:35;;;;;;;12.88;5.97;;;;;;;;;;5106753;28;20048;-83
2022/03/06 03:34:01;;;;;;;9.00;5.93;;;;;;;;;;5109628;27;20183;-83
2022/03/06 03:36:27;;;;;;;13.98;6.55;;;;;;;;;;5108156;28;20044;-85
2022/03/06 03:38:53;;;;;;;11.50;6.07;;;;;;;;;;5106329;28;20031;-85
2022/03/06 03:41:22;;;;;;;10.25;5.97;;;;;;;;;;5108075;27;20384;-85
2022/03/06 03:43:48;;;;;;;10.65;6.57;;;;;;;;;;5092009;28;20059;-84
2022/03/06 03:46:14;;;;;;;11.48;6.32;;;;;;;;;;5097593;28;20052;-86
2022/03/06 03:48:40;;;;;;;8.38;5.38;;;;;;;;;;5080122;28;20134;-84
2022/03/06 03:51:06;;;;;;;11.45;6.97;;;;;;;;;;5097314;28;20040;-84
2022/03/06 03:53:32;;;;;;;14.40;6.82;;;;;;;;;;5091993;28;20057;-86
2022/03/06 03:55:58;;;;;;;11.68;6.75;;;;;;;;;;5096265;27;20079;-83
2022/03/06 03:58:24;;;;;;;10.52;6.47;;;;;;;;;;5083858;28;20039;-86
2022/03/06 04:00:54;;;;;;;12.75;7.40;;;;;;;;;;5090116;28;20051;-84
2022/03/06 04:03:20;;;;;;;12.60;6.72;;;;;;;;;;5091259;28;20088;-83
2022/03/06 04:05:46;;;;;;;10.77;6.30;;;;;;;;;;5091159;28;20119;-86
2022/03/06 04:08:13;;;;;;;12.68;7.10;;;;;;;;;;5091318;28;20035;-85
2022/03/06 04:10:39;;;;;;;12.98;6.47;;;;;;;;;;5107229;28;20446;-85
2022/03/06 04:13:05;;;;;;;11.85;6.60;;;;;;;;;;5114246;27;20070;-84
2022/03/06 04:15:31;;;;;;;10.48;6.78;;;;;;;;;;5090646;28;20541;-83
2022/03/06 04:17:57;;;;;;;10.65;5.88;;;;;;;;;;5092158;27;20539;-84
2022/03/06 04:20:23;;;;;;;12.10;7.00;;;;;;;;;;5091568;28;20485;-85
2022/03/06 04:22:49;;;;;;;10.63;6.45;;;;;;;;;;5106696;28;20115;-83
2022/03/06 04:25:15;;;;;;;11.43;5.85;;;;;;;;;;5106219;27;20047;-82
2022/03/06 04:27:41;;;;;;;9.55;6.53;;;;;;;;;;5105188;28;20044;-86
2022/03/06 04:30:08;;;;;;;9.85;6.05;;;;;;;;;;5108741;27;20042;-83
2022/03/06 04:32:34;;;;;;;11.50;6.05;;;;;;;;;;5104712;28;20382;-83
2022/03/06 04:35:00;;;;;;;12.93;6.85;;;;;;;;;;5073502;28;20276;-85
2022/03/06 04:37:26;;;;;;;10.43;5.75;;;;;;;;;;5091233;28;20040;-86
2022/03/06 04:39:52;;;;;;;14.13;5.88;;;;;;;;;;5107619;27;20142;-86
2022/03/06 04:42:18;;;;;;;10.05;5.90;;;;;;;;;;5106650;28;20131;-87
2022/03/06 04:44:44;;;;;;;11.48;5.60;;;;;;;;;;5090893;28;20036;-87
2022/03/06 04:47:10;;;;;;;9.75;5.68;;;;;;;;;;5106355;28;20093;-85
2022/03/06 04:49:36;;;;;;;11.80;6.28;;;;;;;;;;5073989;28;20123;-82
2022/03/06 04:52:02;;;;;;;10.52;6.20;;;;;;;;;;5106587;28;20205;-85
2022/03/06 04:54:28;;;;;;;13.18;5.75;;;;;;;;;;5070246;28;20047;-86
2022/03/06 04:56:55;;;;;;;12.15;6.35;;;;;;;;;;5107534;28;20525;-86
2022/03/06 04:59:21;;;;;;;12.02;6.20;;;;;;;;;;5089844;28;20099;-86
2022/03/06 05:01:47;;;;;;;8.80;5.32;;;;;;;;;;5107999;28;20151;-84
2022/03/06 05:04:13;;;;;;;10.32;5.63;;;;;;;;;;5092460;28;20067;-84
2022/03/06 05:06:39;;;;;;;12.45;6.07;;;;;;;;;;5106869;28;20112;-85
2022/03/06 05:09:05;;;;;;;11.60;6.10;;;;;;;;;;5104817;28;20047;-82
2022/03/06 05:11:33;;;;;;;12.20;6.22;;;;;;;;;;5089733;28;20044;-85
2022/03/06 05:13:59;;;;;;;13.27;5.63;;;;;;;;;;5107218;28;20051;-83
2022/03/06 05:16:25;;;;;;;13.38;5.85;;;;;;;;;;5087299;28;20165;-85
2022/03/06 05:18:51;;;;;;;9.02;5.60;;;;;;;;;;5090583;28;20032;-84
2022/03/06 05:21:17;;;;;;;13.85;6.00;;;;;;;;;;5089971;28;20055;-85
2022/03/06 05:23:43;;;;;;;9.98;5.80;;;;;;;;;;5107495;28;20086;-80
2022/03/06 05:26:09;;;;;;;13.38;5.38;;;;;;;;;;5090304;28;20164;-84
2022/03/06 05:28:36;;;;;;;11.55;5.60;;;;;;;;;;5104419;28;20040;-83
2022/03/06 05:31:02;;;;;;;11.70;5.68;;;;;;;;;;5073687;28;20043;-81
2022/03/06 05:33:28;;;;;;;10.95;6.35;;;;;;;;;;5105771;28;20047;-84
2022/03/06 05:35:54;;;;;;;12.60;5.43;;;;;;;;;;5108787;27;20412;-83
2022/03/06 05:38:20;;;;;;;15.68;5.68;;;;;;;;;;5074250;28;20347;-86
2022/03/06 05:40:47;;;;;;;12.55;5.35;;;;;;;;;;5109380;27;20062;-85
2022/03/06 05:43:13;;;;;;;10.07;5.43;;;;;;;;;;5105520;28;20427;-84
2022/03/06 05:45:39;;;;;;;14.65;5.40;;;;;;;;;;5090455;28;20043;-86
2022/03/06 05:48:05;;;;;;;9.98;5.18;;;;;;;;;;5104907;28;20403;-84
2022/03/06 05:50:31;;;;;;;9.20;5.00;;;;;;;;;;5089647;28;20056;-84
2022/03/06 05:52:57;;;;;;;11.68;5.68;;;;;;;;;;5090502;28;20077;-84
2022/03/06 05:55:23;;;;;;;9.90;5.53;;;;;;;;;;5089896;28;20494;-85
2022/03/06 05:57:49;;;;;;;11.35;5.18;;;;;;;;;;5089869;28;20089;-85
2022/03/06 06:00:17;;;;;;;10.27;5.53;;;;;;;;;;5071481;28;20097;-83
2022/03/06 06:02:44;;;;;;;11.27;5.40;;;;;;;;;;5106283;28;20157;-85
2022/03/06 06:05:10;;;;;;;10.80;5.88;;;;;;;;;;5108409;28;20032;-83
2022/03/06 06:07:37;;;;;;;12.35;5.85;;;;;;;;;;5069505;28;20047;-84
2022/03/06 06:10:04;;;;;;;10.25;6.10;;;;;;;;;;5104880;28;20047;-84
2022/03/06 06:12:30;;;;;;;8.18;5.40;;;;;;;;;;5105912;28;20078;-85
2022/03/06 06:14:56;;;;;;;11.90;6.38;;;;;;;;;;5094723;28;20131;-83
2022/03/06 06:17:22;;;;;;;12.98;5.47;;;;;;;;;;5088339;28;20172;-82
2022/03/06 06:19:48;;;;;;;15.25;5.55;;;;;;;;;;5075757;28;20522;-84
2022/03/06 06:22:14;;;;;;;12.07;6.20;;;;;;;;;;5086836;28;20040;-86
2022/03/06 06:24:40;;;;;;;8.98;6.53;;;;;;;;;;5106836;28;20038;-84
2022/03/06 06:27:06;;;;;;;9.85;5.90;;;;;;;;;;5105487;28;20126;-85
2022/03/06 06:29:32;;;;;;;7.95;5.43;;;;;;;;;;5088254;28;20358;-84
2022/03/06 06:31:59;;;;;;;9.43;6.10;;;;;;;;;;5093806;28;20059;-80
2022/03/06 06:34:25;;;;;;;11.88;6.28;;;;;;;;;;5107200;28;20035;-85
2022/03/06 06:36:51;;;;;;;11.40;5.82;;;;;;;;;;5107070;28;20043;-84
2022/03/06 06:39:17;;;;;;;11.50;5.97;;;;;;;;;;5104972;28;20356;-86
2022/03/06 06:41:43;;;;;;;8.07;5.43;;;;;;;;;;5087977;28;20320;-86
2022/03/06 06:44:10;;;;;;;9.18;5.18;;;;;;;;;;5105986;28;20063;-85
2022/03/06 06:46:36;;;;;;;6.13;4.82;;;;;;;;;;5101439;28;20137;-85
2022/03/06 06:49:06;;;;;;;8.43;4.75;;;;;;;;;;5105765;28;20197;-84
2022/03/06 06:51:32;;;;;;;9.32;4.15;;;;;;;;;;5080089;28;20442;-82
2022/03/06 06:53:58;;;;;;;6.25;4.38;;;;;;;;;;5081592;28;20224;-85
2022/03/06 06:56:24;;;;;;;5.82;4.00;;;;;;;;;;5098954;28;20036;-87
2022/03/06 06:58:50;;;;;;;5.95;3.65;;;;;;;;;;5087926;28;20096;-87
2022/03/06 07:01:17;;;;;;;5.13;3.35;;;;;;;;;;5080038;28;20487;-86
2022/03/06 07:03:43;;;;;;;6.47;3.05;;;;;;;;;;5099861;28;20047;-84
2022/03/06 07:06:09;;;;;;;7.13;3.38;;;;;;;;;;5105010;28;20047;-82
2022/03/06 07:08:35;;;;;;;4.82;2.92;;;;;;;;;;5119513;27;20077;-84
2022/03/06 07:11:01;;;;;;;5.05;2.80;;;;;;;;;;5088560;28;20035;-86
2022/03/06 07:13:28;;;;;;;3.85;2.60;;;;;;;;;;5078830;28;20058;-86
2022/03/06 07:15:54;;;;;;;4.28;2.75;;;;;;;;;;5070436;28;20066;-86
2022/03/06 07:18:20;;;;;;;6.25;2.63;;;;;;;;;;5081820;28;20071;-86
2022/03/06 07:20:46;;;;;;;;;;;;;;;;;;5093072;28;20127;-85
2022/03/06 07:23:12;;;;;;;7.70;2.33;;;;;;;;;;5092749;28;20023;-81
2022/03/06 07:25:38;;;;;;;5.90;2.20;;;;;;;;;;5092938;27;20118;-86
2022/03/06 07:28:04;;;;;;;5.70;2.30;;;;;;;;;;5089367;28;20035;-86
2022/03/06 07:30:30;;;;;;;4.15;2.00;;;;;;;;;;5090057;28;20047;-78
2022/03/06 07:32:56;;;;;;;4.22;2.20;;;;;;;;;;5100801;27;20051;-81
2022/03/06 07:35:23;;;;;;;4.25;1.85;;;;;;;;;;5082745;28;20115;-83
2022/03/06 07:37:49;;;;;;;2.78;1.75;;;;;;;;;;5084174;28;20432;-85
2022/03/06 07:40:17;;;;;;;3.78;2.17;;;;;;;;;;5086048;28;20055;-81
2022/03/06 07:42:43;;;;;;;;;;;;;;;;;;5080410;28;20083;-86
2022/03/06 07:45:10;;;;;;;4.75;2.00;;;;;;;;;;5099105;28;19981;-86
2022/03/06 07:47:36;;;;;;;5.50;1.88;;;;;;;;;;5108245;27;20047;-86
2022/03/06 07:50:03;;;;;;;3.58;1.50;;;;;;;;;;5087100;28;20320;-86
2022/03/06 07:52:29;;;;;;;5.22;2.63;;;;;;;;;;5085661;28;20471;-87
2022/03/06 07:54:55;;;;;;;2.85;1.80;;;;;;;;;;5100304;28;20684;-83
2022/03/06 07:57:22;;;;;;;3.17;1.80;;;;;;;;;;5070711;28;20106;-86
2022/03/06 07:59:48;;;;;;;4.35;1.50;;;;;;;;;;5100185;28;20129;-88
2022/03/06 08:02:14;;;;;;;6.45;2.00;;;;;;;;;;5105032;27;20059;-85
2022/03/06 08:04:40;;;;;;;4.40;1.70;;;;;;;;;;5099650;28;20047;-87
2022/03/06 08:07:06;;;;;;;5.85;2.05;;;;;;;;;;5082253;28;20094;-81
2022/03/06 08:09:32;;;;;;;4.47;2.10;;;;;;;;;;5090843;28;20171;-81
2022/03/06 08:12:00;;;;;;;;;;;;;;;;;;5099739;27;20047;-84
2022/03/06 08:14:26;;;;;;;4.13;1.75;;;;;;;;;;5082273;28;19920;-84
2022/03/06 08:16:52;;;;;;;3.63;1.80;;;;;;;;;;5072087;28;20457;-84
2022/03/06 08:19:19;;;;;;;4.07;2.10;;;;;;;;;;5086317;28;20425;-85
2022/03/06 08:21:45;;;;;;;4.15;1.90;;;;;;;;;;5102658;27;20460;-85
2022/03/06 08:24:11;;;;;;;4.18;1.90;;;;;;;;;;5108504;28;20412;-85
2022/03/06 08:26:37;;;;;;;3.73;1.80;;;;;;;;;;5106819;27;20525;-78
2022/03/06 08:29:03;;;;;;;3.55;2.00;;;;;;;;;;5107028;28;20411;-85
2022/03/06 08:31:30;;;;;;;3.65;1.85;;;;;;;;;;5103452;27;20481;-87
2022/03/06 08:33:56;;;;;;;3.88;1.80;;;;;;;;;;5104919;27;20420;-85
2022/03/06 08:36:22;;;;;;;4.05;1.83;;;;;;;;;;5101136;28;20432;-83
2022/03/06 08:38:48;;;;;;;4.10;1.92;;;;;;;;;;5107797;28;20420;-85
2022/03/06 08:41:14;;;;;;;4.68;2.00;;;;;;;;;;5089190;28;20512;-86
2022/03/06 08:43:40;;;;;;;3.70;1.80;;;;;;;;;;5103017;28;20412;-81
2022/03/06 08:46:06;;;;;;;3.75;1.95;;;;;;;;;;5102859;28;20420;-86
2022/03/06 08:48:32;;;;;;;6.68;1.83;;;;;;;;;;5107920;28;20427;-86
2022/03/06 08:50:58;;;;;;;4.20;1.63;;;;;;;;;;5073848;28;20517;-87
2022/03/06 08:53:24;;;;;;;;;;;;;;;;;;5087435;28;20047;-84
2022/03/06 08:55:50;;;;;;;5.72;1.73;;;;;;;;;;5102439;28;19924;-80
2022/03/06 08:58:16;;;;;;;;;;;;;;;;;;5103278;28;20493;-87
2022/03/06 09:00:42;;;;;;;;;;;;;;;;;;5103054;28;20015;-78
2022/03/06 09:03:08;;;;;;;;;;;;;;;;;;5104392;28;20346;-86
2022/03/06 09:05:40;;;;;;;;;;;;;;;;;;5104090;28;19963;-83
2022/03/06 09:08:06;;;;;;;;;;;;;;;;;;5102872;28;19943;-83
2022/03/06 09:10:32;;;;;;;;;;;;;;;;;;5101184;28;20328;-83
2022/03/06 09:13:00;;;;;;;;;;;;;;;;;;5102932;28;19927;-81
2022/03/06 09:15:26;;;;;;;;;;;;;;;;;;5104660;28;19984;-82
2022/03/06 09:17:52;;;;;;;3.53;1.75;;;;;;;;;;5100685;27;20342;-81
2022/03/06 09:20:18;;;;;;;2.42;1.80;;;;;;;;;;5099326;28;20403;-84
2022/03/06 09:22:46;;;;;;;4.70;2.05;;;;;;;;;;5072677;28;20396;-87
2022/03/06 09:25:12;;;;;;;4.13;1.73;;;;;;;;;;5090718;28;20419;-86
2022/03/06 09:27:38;;;;;;;4.22;2.03;;;;;;;;;;5090616;28;20059;-85
2022/03/06 09:30:05;;;;;;;4.72;1.92;;;;;;;;;;5107271;28;20076;-85
2022/03/06 09:32:31;;;;;;;3.70;1.88;;;;;;;;;;5104967;28;20051;-85
2022/03/06 09:34:57;;;;;;;4.55;1.80;;;;;;;;;;5088848;28;20046;-83
2022/03/06 09:37:23;;;;;;;4.60;1.67;;;;;;;;;;5074717;28;20185;-85
2022/03/06 09:39:49;;;;;;;3.92;1.75;;;;;;;;;;5107173;28;20035;-83
2022/03/06 09:42:19;;;;;;;3.78;1.60;;;;;;;;;;5092209;28;20051;-83
2022/03/06 09:44:49;;;;;;;3.45;1.60;;;;;;;;;;5086475;28;20455;-84
2022/03/06 09:47:16;;;;;;;6.32;2.17;;;;;;;;;;5106983;28;20047;-86
2022/03/06 09:49:46;;;;;;;2.42;1.60;;;;;;;;;;5085430;28;20051;-84
2022/03/06 09:52:12;;;;;;;3.95;1.88;;;;;;;;;;5104663;28;20039;-82
2022/03/06 09:54:39;;;;;;;3.53;1.67;;;;;;;;;;5090020;28;20470;-86
2022/03/06 09:57:05;;;;;;;2.92;1.67;;;;;;;;;;5090543;28;20474;-88
2022/03/06 09:59:31;;;;;;;4.65;1.80;;;;;;;;;;5106264;28;20031;-84
2022/03/06 10:02:01;;;;;;;4.22;2.63;;;;;;;;;;5102015;28;20077;-83
2022/03/06 10:04:32;;;;;;;3.35;1.88;;;;;;;;;;5103873;28;20048;-84
2022/03/06 10:07:03;;;;;;;3.38;2.20;;;;;;;;;;5088052;28;20056;-83
2022/03/06 10:09:30;;;;;;;5.03;2.20;;;;;;;;;;5088635;28;20152;-83
2022/03/06 10:11:56;;;;;;;2.95;1.80;;;;;;;;;;5102363;28;20055;-84
2022/03/06 10:14:34;;;;;;;4.43;2.08;;;;;;;;;;5084581;28;20048;-83
2022/03/06 10:17:11;;;;;;;6.28;2.65;;;;;;;;;;5103404;28;20047;-85
2022/03/06 10:19:50;;;;;;;6.53;2.40;;;;;;;;;;5087335;28;20040;-82
2022/03/06 10:22:16;;;;;;;4.80;2.35;;;;;;;;;;5108104;28;20508;-85
2022/03/06 10:24:46;;;;;;;4.80;2.30;;;;;;;;;;5103608;28;20039;-84
2022/03/06 10:27:12;;;;;;;4.35;2.17;;;;;;;;;;5104816;28;20040;-83
2022/03/06 10:29:39;;;;;;;4.20;2.30;;;;;;;;;;5113474;28;20100;-85
2022/03/06 10:32:07;;;;;;;5.82;2.40;;;;;;;;;;5073089;28;20040;-84
2022/03/06 10:34:40;;;;;;;5.28;2.40;;;;;;;;;;5106248;28;20105;-83
2022/03/06 10:37:07;;;;;;;4.70;2.33;;;;;;;;;;5104371;28;20036;-83
2022/03/06 10:39:46;;;;;;;4.97;2.03;;;;;;;;;;5105943;28;20059;-84
2022/03/06 10:42:20;;;;;;;4.90;2.10;;;;;;;;;;5100314;28;20100;-85
2022/03/06 10:44:47;;;;;;;4.75;2.30;;;;;;;;;;5108856;28;20043;-85
2022/03/06 10:47:13;;;;;;;5.45;1.90;;;;;;;;;;5105209;28;20051;-85
2022/03/06 10:49:39;;;;;;;6.18;2.45;;;;;;;;;;5091014;28;20077;-83
2022/03/06 10:52:35;;;;;;;3.92;2.08;;;;;;;;;;5076668;28;20089;-85
2022/03/06 10:55:01;;;;;;;4.70;2.35;;;;;;;;;;5091586;28;20058;-89
2022/03/06 10:57:27;;;;;;;6.03;2.38;;;;;;;;;;5071535;28;22328;-83
2022/03/06 10:59:55;;;;;;;6.25;2.38;;;;;;;;;;5083942;28;20126;-83
2022/03/06 11:02:24;;;;;;;5.82;2.35;;;;;;;;;;5078581;28;20039;-81
2022/03/06 11:04:53;;;;;;;2.75;1.98;;;;;;;;;;5103155;28;20036;-82
2022/03/06 11:07:19;;;;;;;4.60;2.25;;;;;;;;;;5081152;28;20192;-80
2022/03/06 11:09:49;;;;;;;4.55;2.60;;;;;;;;;;5115356;27;20151;-82
2022/03/06 11:12:15;;;;;;;4.25;2.22;;;;;;;;;;5093963;28;20134;-82
2022/03/06 11:14:42;;;;;;;4.72;2.10;;;;;;;;;;5097550;28;20081;-81
2022/03/06 11:17:08;;;;;;;5.03;2.13;;;;;;;;;;5100249;28;20089;-82
2022/03/06 11:19:34;;;;;;;5.00;2.45;;;;;;;;;;5100894;28;20119;-81
2022/03/06 11:22:03;;;;;;;6.72;2.22;;;;;;;;;;5068849;28;20143;-84
2022/03/06 11:24:30;;;;;;;4.40;2.28;;;;;;;;;;5098800;28;20040;-83
2022/03/06 11:27:01;;;;;;;4.75;1.92;;;;;;;;;;5111589;28;20055;-84
2022/03/06 11:29:33;;;;;;;4.90;2.05;;;;;;;;;;5093851;28;20514;-82
2022/03/06 11:32:04;;;;;;;4.75;2.20;;;;;;;;;;5103147;28;20039;-82
2022/03/06 11:34:31;;;;;;;4.22;2.42;;;;;;;;;;5088162;28;20383;-79
2022/03/06 11:36:58;;;;;;;5.90;2.10;;;;;;;;;;5085382;27;20043;-81
2022/03/06 11:39:30;;;;;;;6.22;2.05;;;;;;;;;;5104849;28;20082;-80
2022/03/06 11:41:57;;;;;;;3.92;2.30;;;;;;;;;;5103008;28;20044;-80
2022/03/06 11:44:47;;;;;;;6.10;2.28;;;;;;;;;;5103518;28;20339;-82
2022/03/06 11:47:14;;;;;;;5.18;2.25;;;;;;;;;;5109047;28;20098;-82
2022/03/06 11:49:40;;;;;;;3.83;2.10;;;;;;;;;;5094554;28;20090;-83
2022/03/06 11:52:25;;;;;;;4.00;2.35;;;;;;;;;;5104993;27;20067;-80
2022/03/06 11:54:51;;;;;;;4.70;2.40;;;;;;;;;;5109150;28;20448;-77
2022/03/06 11:57:36;;;;;;;3.58;2.05;;;;;;;;;;5101452;28;20036;-75
2022/03/06 12:00:18;;;;;;;4.85;2.50;;;;;;;;;;5084639;28;20486;-75
2022/03/06 12:02:46;;;;;;;4.63;2.20;;;;;;;;;;5114487;27;20036;-80
2022/03/06 12:05:12;;;;;;;4.80;2.40;;;;;;;;;;5071412;28;20158;-80
2022/03/06 12:07:40;;;;;;;3.78;2.03;;;;;;;;;;5091506;28;20114;-79
2022/03/06 12:10:10;;;;;;;5.53;2.40;;;;;;;;;;5088588;28;20417;-79
2022/03/06 12:12:37;;;;;;;4.55;2.70;;;;;;;;;;5106172;28;20446;-79
2022/03/06 12:15:12;;;;;;;6.70;2.60;;;;;;;;;;5089744;28;20548;-79
2022/03/06 12:17:39;;;;;;;6.40;2.55;;;;;;;;;;5106934;28;20434;-80
2022/03/06 12:20:08;;;;;;;4.70;2.30;;;;;;;;;;5105693;28;20427;-80
2022/03/06 12:22:44;;;;;;;5.55;2.60;;;;;;;;;;5107429;28;20908;-79
2022/03/06 12:25:14;;;;;;;3.28;2.35;;;;;;;;;;5091188;28;20048;-83
2022/03/06 12:27:41;;;;;;;6.78;2.88;;;;;;;;;;5107540;27;20469;-83
2022/03/06 12:30:09;;;;;;;5.10;2.53;;;;;;;;;;5106034;28;20517;-78
2022/03/06 12:32:36;;;;;;;7.22;1.90;;;;;;;;;;5106715;28;20565;-80
2022/03/06 12:35:02;;;;;;;4.25;1.90;;;;;;;;;;5090134;28;20043;-81
2022/03/06 12:37:29;;;;;;;4.32;1.77;;;;;;;;;;5109185;28;20048;-80
2022/03/06 12:39:56;;;;;;;7.97;2.08;;;;;;;;;;5107493;27;20105;-80
2022/03/06 12:42:29;;;;;;;5.57;2.50;;;;;;;;;;5102553;28;20516;-85
2022/03/06 12:45:00;;;;;;;4.43;2.30;;;;;;;;;;5103102;27;21007;-75
2022/03/06 12:47:27;;;;;;;5.20;2.22;;;;;;;;;;5102576;28;21013;-75
2022/03/06 12:49:53;;;;;;;5.85;2.45;;;;;;;;;;5105623;27;20387;-79
2022/03/06 12:52:21;;;;;;;4.72;1.85;;;;;;;;;;5103528;27;20058;-75
2022/03/06 12:54:47;;;;;;;4.22;2.33;;;;;;;;;;5106656;28;20467;-79
2022/03/06 12:57:13;;;;;;;6.10;2.22;;;;;;;;;;5103868;28;20434;-76
2022/03/06 12:59:43;;;;;;;4.17;2.47;;;;;;;;;;5118577;27;20416;-76
2022/03/06 13:02:10;;;;;;;6.30;2.17;;;;;;;;;;5089389;28;21010;-77
2022/03/06 13:04:36;;;;;;;4.68;2.38;;;;;;;;;;5105522;28;20508;-76
2022/03/06 13:07:04;;;;;;;4.88;2.35;;;;;;;;;;5105945;28;20867;-76
2022/03/06 13:09:34;;;;;;;5.65;2.38;;;;;;;;;;5107558;28;20472;-77
2022/03/06 13:12:01;;;;;;;7.50;2.97;;;;;;;;;;5089503;28;20415;-76
2022/03/06 13:14:28;;;;;;;5.32;2.20;;;;;;;;;;5107156;28;20787;-75
2022/03/06 13:16:55;;;;;;;3.92;2.10;;;;;;;;;;5107486;28;20452;-77
2022/03/06 13:19:22;;;;;;;6.00;2.40;;;;;;;;;;5105913;28;20479;-77
2022/03/06 13:21:48;;;;;;;5.45;2.47;;;;;;;;;;5090077;28;20698;-77
2022/03/06 13:24:15;;;;;;;4.97;2.40;;;;;;;;;;5105818;27;20511;-78
2022/03/06 13:26:41;;;;;;;4.10;2.30;;;;;;;;;;5104708;28;20425;-77
2022/03/06 13:29:12;;;;;;;5.07;2.22;;;;;;;;;;5105550;28;21143;-76
2022/03/06 13:31:46;;;;;;;5.60;1.90;;;;;;;;;;5106081;28;20558;-77
2022/03/06 13:34:18;;;;;;;4.20;2.10;;;;;;;;;;5086432;28;20530;-78
2022/03/06 13:36:45;;;;;;;5.10;2.42;;;;;;;;;;5119732;27;20915;-77
2022/03/06 13:39:18;;;;;;;6.78;2.80;;;;;;;;;;5105111;28;20424;-78
2022/03/06 13:41:55;;;;;;;5.53;2.10;;;;;;;;;;5106695;27;20751;-77
2022/03/06 13:44:21;;;;;;;5.20;2.40;;;;;;;;;;5104055;28;20815;-78
2022/03/06 13:46:48;;;;;;;5.32;2.40;;;;;;;;;;5090069;28;20420;-76
2022/03/06 13:49:15;;;;;;;5.38;2.40;;;;;;;;;;5104395;28;20428;-77
2022/03/06 13:51:42;;;;;;;5.25;2.25;;;;;;;;;;5106663;28;20423;-78
2022/03/06 13:54:08;;;;;;;7.32;2.50;;;;;;;;;;5106541;28;20416;-77
2022/03/06 13:56:39;;;;;;;6.20;2.55;;;;;;;;;;5103901;28;20419;-78
2022/03/06 13:59:06;;;;;;;4.93;2.58;;;;;;;;;;5121368;28;20439;-76
2022/03/06 14:01:33;;;;;;;5.38;2.55;;;;;;;;;;5103673;28;20470;-78
2022/03/06 14:04:00;;;;;;;6.38;2.65;;;;;;;;;;5105875;28;20416;-77
2022/03/06 14:06:34;;;;;;;7.35;2.42;;;;;;;;;;5103125;28;20423;-75
2022/03/06 14:09:00;;;;;;;6.55;2.30;;;;;;;;;;5091748;28;20412;-76
2022/03/06 14:11:27;;;;;;;5.20;2.60;;;;;;;;;;5077764;28;20574;-76
2022/03/06 14:13:55;;;;;;;4.97;2.40;;;;;;;;;;5109855;28;20467;-75
2022/03/06 14:16:30;;;;;;;8.73;2.80;;;;;;;;;;5108745;27;21253;-78
2022/03/06 14:18:58;;;;;;;5.18;2.40;;;;;;;;;;5106677;28;20970;-78
2022/03/06 14:21:27;;;;;;;6.15;2.72;;;;;;;;;;5110197;27;20523;-78
2022/03/06 14:24:00;;;;;;;4.35;2.40;;;;;;;;;;5093647;28;20467;-78
2022/03/06 14:26:30;;;;;;;6.93;2.33;;;;;;;;;;5090382;28;20527;-76
2022/03/06 14:29:08;;;;;;;4.50;2.30;;;;;;;;;;5109414;28;20613;-78
2022/03/06 14:31:34;;;;;;;5.63;2.50;;;;;;;;;;5092866;28;20583;-80
2022/03/06 14:34:01;;;;;;;5.18;2.35;;;;;;;;;;5092709;28;20500;-77
2022/03/06 14:36:27;;;;;;;5.32;2.42;;;;;;;;;;5105432;28;20427;-84
2022/03/06 14:38:54;;;;;;;5.88;2.40;;;;;;;;;;5110592;28;20610;-86
2022/03/06 14:41:20;;;;;;;5.97;2.20;;;;;;;;;;5107663;27;20451;-79